Time;durP1;ratioP1;P1;durP2;ratioP2;P2;SDS_P1;SDS_P2;PMS_P1;PMS_P2;Temp;Humidity;BMP_temperature;BMP_pressure;BME280_temperature;BME280_humidity;BME280_pressure;Samples;Min_cycle;Max_cycle;Signal;HPM_P1;HPM_P2
2021/07/24 00:01:56;;;;;;;;;15.75;14.75;;;;;;;;3560071;39;112173;-78
2021/07/24 00:04:22;;;;;;;;;17.25;17.25;;;;;;;;3561154;39;113313;-76
2021/07/24 00:06:50;;;;;;;;;19.25;16.00;;;;;;;;3558510;39;113711;-76
2021/07/24 00:09:17;;;;;;;;;18.25;16.75;;;;;;;;3560609;39;112462;-77
2021/07/24 00:11:43;;;;;;;;;19.75;18.50;;;;;;;;3561575;39;113394;-78
2021/07/24 00:14:10;;;;;;;;;17.00;16.25;;;;;;;;3559954;39;111796;-78
2021/07/24 00:16:36;;;;;;;;;19.25;16.00;;;;;;;;3557470;39;114479;-79
2021/07/24 00:19:03;;;;;;;;;13.00;13.00;;;;;;;;3559248;39;113794;-78
2021/07/24 00:21:30;;;;;;;;;16.50;16.00;;;;;;;;3559835;39;112339;-79
2021/07/24 00:23:58;;;;;;;;;14.75;14.00;;;;;;;;3556575;39;113958;-79
2021/07/24 00:26:24;;;;;;;;;15.25;15.25;;;;;;;;3560443;39;114565;-78
2021/07/24 00:28:51;;;;;;;;;17.25;16.00;;;;;;;;3558816;39;112528;-78
2021/07/24 00:31:17;;;;;;;;;15.00;14.00;;;;;;;;3560713;39;112332;-77
2021/07/24 00:33:44;;;;;;;;;16.50;14.50;;;;;;;;3560603;39;111919;-79
2021/07/24 00:36:10;;;;;;;;;16.00;16.00;;;;;;;;3559843;39;113289;-79
2021/07/24 00:38:39;;;;;;;;;17.00;17.00;;;;;;;;3555243;39;112917;-78
2021/07/24 00:41:10;;;;;;;;;15.50;15.50;;;;;;;;3559450;39;112035;-78
2021/07/24 00:43:37;;;;;;;;;20.50;16.50;;;;;;;;3558832;39;113490;-79
2021/07/24 00:46:05;;;;;;;;;16.50;16.25;;;;;;;;3558169;39;114664;-79
2021/07/24 00:48:32;;;;;;;;;18.00;17.25;;;;;;;;3559398;39;112073;-79
2021/07/24 00:50:59;;;;;;;;;18.25;17.00;;;;;;;;3558850;39;113764;-79
2021/07/24 00:53:34;;;;;;;;;16.50;15.75;;;;;;;;3562156;39;113898;-78
2021/07/24 00:56:01;;;;;;;;;16.50;16.50;;;;;;;;3559038;39;113139;-77
2021/07/24 00:58:30;;;;;;;;;16.25;16.25;;;;;;;;3559513;39;114388;-77
2021/07/24 01:00:57;;;;;;;;;13.50;13.50;;;;;;;;3558660;39;111943;-77
2021/07/24 01:03:23;;;;;;;;;16.25;16.00;;;;;;;;3560105;39;113715;-77
2021/07/24 01:05:51;;;;;;;;;15.25;15.25;;;;;;;;3558032;39;114020;-78
2021/07/24 01:08:18;;;;;;;;;17.50;16.50;;;;;;;;3558597;39;112009;-77
2021/07/24 01:10:44;;;;;;;;;18.25;16.75;;;;;;;;3559958;39;113348;-77
2021/07/24 01:13:11;;;;;;;;;17.00;16.00;;;;;;;;3556521;39;112953;-77
2021/07/24 01:15:39;;;;;;;;;15.25;13.75;;;;;;;;3562314;39;112221;-77
2021/07/24 01:18:05;;;;;;;;;15.00;14.50;;;;;;;;3558501;39;113892;-77
2021/07/24 01:20:32;;;;;;;;;15.50;15.25;;;;;;;;3559229;39;112627;-79
2021/07/24 01:23:00;;;;;;;;;14.25;12.75;;;;;;;;3559465;39;113726;-80
2021/07/24 01:25:27;;;;;;;;;15.75;15.25;;;;;;;;3558270;39;114258;-79
2021/07/24 01:27:54;;;;;;;;;16.75;15.25;;;;;;;;3560123;39;111739;-80
2021/07/24 01:30:20;;;;;;;;;16.75;16.00;;;;;;;;3558380;39;113311;-79
2021/07/24 01:32:47;;;;;;;;;17.00;17.00;;;;;;;;3558082;39;114080;-79
2021/07/24 01:35:13;;;;;;;;;17.50;16.25;;;;;;;;3560067;39;112007;-79
2021/07/24 01:37:40;;;;;;;;;16.50;15.00;;;;;;;;3561177;39;113439;-78
2021/07/24 01:40:09;;;;;;;;;18.25;15.75;;;;;;;;3559279;39;111924;-78
2021/07/24 01:42:35;;;;;;;;;16.25;14.75;;;;;;;;3559296;39;113466;-79
2021/07/24 01:45:02;;;;;;;;;16.25;16.25;;;;;;;;3558437;39;114357;-79
2021/07/24 01:47:28;;;;;;;;;14.00;14.00;;;;;;;;3560449;39;112186;-79
2021/07/24 01:52:50;;;;;;;;;16.75;14.75;;;;;;;;3559166;39;112357;-78
2021/07/24 01:55:22;;;;;;;;;12.75;12.75;;;;;;;;3560231;39;111925;-78
2021/07/24 01:57:50;;;;;;;;;16.25;15.25;;;;;;;;3553044;39;112227;-79
2021/07/24 02:00:17;;;;;;;;;15.75;15.25;;;;;;;;3560926;39;113963;-79
2021/07/24 02:02:44;;;;;;;;;15.50;15.50;;;;;;;;3560082;39;113319;-78
2021/07/24 02:05:15;;;;;;;;;16.50;16.00;;;;;;;;3558049;39;114549;-78
2021/07/24 02:07:44;;;;;;;;;15.50;15.25;;;;;;;;3560218;39;111972;-78
2021/07/24 02:10:11;;;;;;;;;16.25;14.25;;;;;;;;3559280;39;113318;-78
2021/07/24 02:12:39;;;;;;;;;17.00;16.00;;;;;;;;3559790;39;113904;-79
2021/07/24 02:15:06;;;;;;;;;18.25;18.00;;;;;;;;3559359;39;112896;-79
2021/07/24 02:17:33;;;;;;;;;18.00;18.00;;;;;;;;3559308;39;113434;-79
2021/07/24 02:20:02;;;;;;;;;14.75;14.50;;;;;;;;3558909;39;113982;-80
2021/07/24 02:22:29;;;;;;;;;19.25;17.00;;;;;;;;3561524;39;112258;-78
2021/07/24 02:24:55;;;;;;;;;17.50;16.00;;;;;;;;3557187;39;113890;-77
2021/07/24 02:27:22;;;;;;;;;16.00;15.00;;;;;;;;3558171;39;111983;-78
2021/07/24 02:29:50;;;;;;;;;15.00;15.00;;;;;;;;3560122;39;113516;-77
2021/07/24 02:32:17;;;;;;;;;17.25;17.25;;;;;;;;3555983;39;114114;-78
2021/07/24 02:34:44;;;;;;;;;16.00;15.00;;;;;;;;3559781;39;111945;-78
2021/07/24 02:37:10;;;;;;;;;17.00;16.00;;;;;;;;3558394;39;113434;-78
2021/07/24 02:39:37;;;;;;;;;16.50;16.50;;;;;;;;3558863;39;113977;-79
2021/07/24 02:42:04;;;;;;;;;17.00;15.50;;;;;;;;3561430;39;112008;-79
2021/07/24 02:44:30;;;;;;;;;15.50;15.25;;;;;;;;3558479;39;113778;-79
2021/07/24 02:46:58;;;;;;;;;17.75;16.00;;;;;;;;3559131;39;111963;-79
2021/07/24 02:49:25;;;;;;;;;15.25;15.25;;;;;;;;3560003;39;113258;-79
2021/07/24 02:51:51;;;;;;;;;16.75;16.00;;;;;;;;3557546;39;113800;-79
2021/07/24 02:54:18;;;;;;;;;17.25;16.75;;;;;;;;3557965;39;112261;-78
2021/07/24 02:56:44;;;;;;;;;15.33;15.33;;;;;;;;3557923;39;113380;-77
2021/07/24 02:59:11;;;;;;;;;14.00;13.00;;;;;;;;3558878;39;113971;-77
2021/07/24 03:01:40;;;;;;;;;17.00;16.25;;;;;;;;3558188;39;111881;-77
2021/07/24 03:04:08;;;;;;;;;19.00;17.50;;;;;;;;3560983;39;113537;-78
2021/07/24 03:06:34;;;;;;;;;18.00;17.00;;;;;;;;3555101;39;113016;-79
2021/07/24 03:09:03;;;;;;;;;17.50;16.50;;;;;;;;3557375;39;112450;-79
2021/07/24 03:11:30;;;;;;;;;17.25;17.25;;;;;;;;3559662;39;114119;-80
2021/07/24 03:13:56;;;;;;;;;16.50;15.50;;;;;;;;3559533;39;111933;-78
2021/07/24 03:16:24;;;;;;;;;17.25;16.00;;;;;;;;3560466;39;113334;-79
2021/07/24 03:18:51;;;;;;;;;19.00;17.75;;;;;;;;3558635;39;114460;-79
2021/07/24 03:21:19;;;;;;;;;18.00;16.75;;;;;;;;3560934;39;111924;-79
2021/07/24 03:23:46;;;;;;;;;20.75;17.25;;;;;;;;3557049;39;113732;-78
2021/07/24 03:26:13;;;;;;;;;17.50;17.00;;;;;;;;3562682;39;113965;-79
2021/07/24 03:28:39;;;;;;;;;15.00;12.67;;;;;;;;3559464;39;113289;-79
2021/07/24 03:31:06;;;;;;;;;19.00;18.75;;;;;;;;3559682;39;113817;-78
2021/07/24 03:33:33;;;;;;;;;14.00;14.00;;;;;;;;3559811;39;111940;-78
2021/07/24 03:35:59;;;;;;;;;21.00;20.00;;;;;;;;3559451;39;113252;-77
2021/07/24 03:38:28;;;;;;;;;18.00;18.00;;;;;;;;3559746;39;113805;-78
2021/07/24 03:40:55;;;;;;;;;21.00;19.25;;;;;;;;3559170;39;111877;-77
2021/07/24 03:43:21;;;;;;;;;19.00;17.50;;;;;;;;3560422;39;113457;-78
2021/07/24 03:45:48;;;;;;;;;19.50;16.00;;;;;;;;3558388;39;113866;-77
2021/07/24 03:48:15;;;;;;;;;19.00;18.75;;;;;;;;3561919;39;111912;-76
2021/07/24 03:50:42;;;;;;;;;18.00;17.50;;;;;;;;3559688;39;113670;-74
2021/07/24 03:53:08;;;;;;;;;18.00;17.00;;;;;;;;3558825;39;113301;-75
2021/07/24 03:55:36;;;;;;;;;15.75;15.00;;;;;;;;3559834;39;113434;-76
2021/07/24 03:58:03;;;;;;;;;17.25;17.00;;;;;;;;3558695;39;115126;-75
2021/07/24 04:00:34;;;;;;;;;19.25;18.25;;;;;;;;3559465;39;111746;-76
2021/07/24 04:03:01;;;;;;;;;17.50;16.25;;;;;;;;3557921;39;112464;-75
2021/07/24 04:05:27;;;;;;;;;18.25;16.00;;;;;;;;3558630;39;113935;-76
2021/07/24 04:07:54;;;;;;;;;16.50;15.00;;;;;;;;3558870;39;112397;-76
2021/07/24 04:10:21;;;;;;;;;20.00;18.25;;;;;;;;3560957;39;113199;-75
2021/07/24 04:12:52;;;;;;;;;17.50;17.50;;;;;;;;3560362;39;112097;-75
2021/07/24 04:15:19;;;;;;;;;18.75;16.75;;;;;;;;3560333;39;113396;-75
2021/07/24 04:17:46;;;;;;;;;19.25;17.50;;;;;;;;3558197;39;113921;-75
2021/07/24 04:20:15;;;;;;;;;18.25;16.00;;;;;;;;3559974;39;111952;-75
2021/07/24 04:22:41;;;;;;;;;17.50;16.50;;;;;;;;3558504;39;113619;-76
2021/07/24 04:25:08;;;;;;;;;17.50;16.75;;;;;;;;3557948;39;113861;-75
2021/07/24 04:27:35;;;;;;;;;21.00;19.00;;;;;;;;3556187;39;111920;-75
2021/07/24 04:30:03;;;;;;;;;20.25;17.50;;;;;;;;3559260;39;113350;-76
2021/07/24 04:32:30;;;;;;;;;20.50;20.50;;;;;;;;3561434;39;113956;-75
2021/07/24 04:34:56;;;;;;;;;20.50;17.75;;;;;;;;3559455;39;113931;-75
2021/07/24 04:37:23;;;;;;;;;21.25;20.50;;;;;;;;3558114;39;113831;-75
2021/07/24 04:39:49;;;;;;;;;18.25;17.25;;;;;;;;3558343;39;111647;-75
2021/07/24 04:42:16;;;;;;;;;22.50;19.50;;;;;;;;3560146;39;113323;-74
2021/07/24 04:44:43;;;;;;;;;18.50;16.25;;;;;;;;3557865;39;113888;-74
2021/07/24 04:47:11;;;;;;;;;19.00;19.00;;;;;;;;3559678;39;111908;-75
2021/07/24 04:49:40;;;;;;;;;22.00;19.00;;;;;;;;3558912;39;113096;-76
2021/07/24 04:52:07;;;;;;;;;18.00;18.00;;;;;;;;3562058;39;113988;-76
2021/07/24 04:54:33;;;;;;;;;19.50;18.50;;;;;;;;3559014;39;113054;-77
2021/07/24 04:57:06;;;;;;;;;17.75;16.50;;;;;;;;3552900;39;112825;-76
2021/07/24 04:59:33;;;;;;;;;20.75;18.75;;;;;;;;3559396;39;111924;-77
2021/07/24 05:01:59;;;;;;;;;18.00;17.00;;;;;;;;3559168;39;113257;-77
2021/07/24 05:04:27;;;;;;;;;17.75;17.50;;;;;;;;3558493;39;113845;-75
2021/07/24 05:06:54;;;;;;;;;18.75;17.50;;;;;;;;3559561;39;111833;-75
2021/07/24 05:09:21;;;;;;;;;16.25;15.25;;;;;;;;3556966;39;112291;-76
2021/07/24 05:11:47;;;;;;;;;20.50;19.50;;;;;;;;3556240;39;113064;-77
2021/07/24 05:14:14;;;;;;;;;17.75;17.00;;;;;;;;3551461;39;112015;-76
2021/07/24 05:16:41;;;;;;;;;19.00;16.75;;;;;;;;3555818;39;115016;-75
2021/07/24 05:19:08;;;;;;;;;19.50;16.75;;;;;;;;3554629;39;113739;-76
2021/07/24 05:21:36;;;;;;;;;17.00;17.00;;;;;;;;3557267;39;113726;-77
2021/07/24 05:24:03;;;;;;;;;20.75;19.00;;;;;;;;3562814;39;113950;-75
2021/07/24 05:26:29;;;;;;;;;18.50;17.75;;;;;;;;3559361;39;111970;-71
2021/07/24 05:28:56;;;;;;;;;20.00;20.00;;;;;;;;3558617;39;113445;-70
2021/07/24 05:31:25;;;;;;;;;17.25;16.50;;;;;;;;3558463;39;114088;-69
2021/07/24 05:33:51;;;;;;;;;19.75;17.00;;;;;;;;3556043;39;112908;-69
2021/07/24 05:36:18;;;;;;;;;20.50;17.00;;;;;;;;3556955;39;112771;-70
2021/07/24 05:38:46;;;;;;;;;21.75;21.00;;;;;;;;3555944;39;112129;-71
2021/07/24 05:41:12;;;;;;;;;18.75;17.00;;;;;;;;3559846;39;113647;-75
2021/07/24 05:43:39;;;;;;;;;19.75;18.00;;;;;;;;3557785;39;114267;-76
2021/07/24 05:46:05;;;;;;;;;20.25;18.25;;;;;;;;3558157;39;112316;-74
2021/07/24 05:48:32;;;;;;;;;20.00;17.75;;;;;;;;3558463;39;113621;-74
2021/07/24 05:50:58;;;;;;;;;22.00;19.75;;;;;;;;3557928;39;113838;-72
2021/07/24 05:53:25;;;;;;;;;21.00;19.50;;;;;;;;3559514;39;111857;-73
2021/07/24 05:55:53;;;;;;;;;19.75;19.00;;;;;;;;3558428;39;114282;-73
2021/07/24 05:58:20;;;;;;;;;19.00;18.50;;;;;;;;3564954;39;114290;-75
2021/07/24 06:00:46;;;;;;;;;18.75;18.00;;;;;;;;3563459;39;113687;-73
2021/07/24 06:03:14;;;;;;;;;20.50;19.25;;;;;;;;3560221;39;113800;-78
2021/07/24 06:05:41;;;;;;;;;17.00;15.50;;;;;;;;3563877;39;112162;-75
2021/07/24 06:08:07;;;;;;;;;17.75;16.75;;;;;;;;3559536;39;113804;-74
2021/07/24 06:10:34;;;;;;;;;16.75;15.00;;;;;;;;3554586;39;112941;-73
2021/07/24 06:13:02;;;;;;;;;19.00;18.75;;;;;;;;3559006;39;111893;-73
2021/07/24 06:15:30;;;;;;;;;21.25;19.00;;;;;;;;3562352;39;113209;-73
2021/07/24 06:17:56;;;;;;;;;23.25;17.50;;;;;;;;3561661;39;114062;-73
2021/07/24 06:20:23;;;;;;;;;20.25;19.75;;;;;;;;3563016;39;113045;-75
2021/07/24 06:22:50;;;;;;;;;19.75;17.25;;;;;;;;3557960;39;113220;-71
2021/07/24 06:25:16;;;;;;;;;20.75;20.75;;;;;;;;3560337;39;112492;-72
2021/07/24 06:27:43;;;;;;;;;17.00;15.25;;;;;;;;3560481;39;113336;-72
2021/07/24 06:30:12;;;;;;;;;19.50;19.50;;;;;;;;3557867;39;114052;-73
2021/07/24 06:32:38;;;;;;;;;23.75;21.50;;;;;;;;3560185;39;112164;-72
2021/07/24 06:35:05;;;;;;;;;18.25;17.50;;;;;;;;3561301;39;113373;-73
2021/07/24 06:37:32;;;;;;;;;19.00;18.50;;;;;;;;3555231;39;113377;-73
2021/07/24 06:39:58;;;;;;;;;21.75;19.50;;;;;;;;3559089;39;111847;-75
2021/07/24 06:42:25;;;;;;;;;20.50;18.50;;;;;;;;3564746;39;113308;-86
2021/07/24 06:44:53;;;;;;;;;20.50;20.50;;;;;;;;3560803;39;111911;-81
2021/07/24 06:47:21;;;;;;;;;21.25;20.75;;;;;;;;3560822;39;113606;-81
2021/07/24 06:49:47;;;;;;;;;18.75;16.00;;;;;;;;3558599;39;114295;-81
2021/07/24 06:52:14;;;;;;;;;19.00;19.00;;;;;;;;3557162;39;111798;-81
2021/07/24 06:54:40;;;;;;;;;24.50;24.00;;;;;;;;3560941;39;113600;-81
2021/07/24 06:57:07;;;;;;;;;22.00;20.00;;;;;;;;3560300;39;114377;-80
2021/07/24 06:59:33;;;;;;;;;18.67;17.00;;;;;;;;3557465;39;112282;-80
2021/07/24 07:02:00;;;;;;;;;19.33;19.33;;;;;;;;3556653;39;113372;-80
2021/07/24 07:04:28;;;;;;;;;26.00;22.25;;;;;;;;3555922;39;113570;-73
2021/07/24 07:06:55;;;;;;;;;20.00;19.00;;;;;;;;3554924;39;113449;-74
2021/07/24 07:09:21;;;;;;;;;20.75;18.75;;;;;;;;3556059;39;113993;-74
2021/07/24 07:11:48;;;;;;;;;19.00;17.33;;;;;;;;3554666;39;111988;-74
2021/07/24 07:14:14;;;;;;;;;17.33;17.33;;;;;;;;3553932;39;113377;-74
2021/07/24 07:16:41;;;;;;;;;19.67;19.67;;;;;;;;3556535;39;114162;-74
2021/07/24 07:19:07;;;;;;;;;22.33;19.00;;;;;;;;3559674;39;112141;-74
2021/07/24 07:21:35;;;;;;;;;18.00;17.67;;;;;;;;3558435;39;113725;-74
2021/07/24 07:24:02;;;;;;;;;19.33;19.00;;;;;;;;3561538;39;113560;-74
2021/07/24 07:26:29;;;;;;;;;22.67;21.33;;;;;;;;3559361;39;113725;-73
2021/07/24 07:28:58;;;;;;;;;19.33;19.33;;;;;;;;3559360;39;113903;-73
2021/07/24 07:31:24;;;;;;;;;26.00;20.00;;;;;;;;3559455;39;111799;-72
2021/07/24 07:33:51;;;;;;;;;21.67;20.33;;;;;;;;3559868;39;113728;-72
2021/07/24 07:36:17;;;;;;;;;18.00;18.00;;;;;;;;3557638;39;113990;-75
2021/07/24 07:38:45;;;;;;;;;22.33;21.00;;;;;;;;3560287;39;111793;-72
2021/07/24 07:41:12;;;;;;;;;21.00;19.67;;;;;;;;3558459;39;114533;-74
2021/07/24 07:43:39;;;;;;;;;18.67;17.33;;;;;;;;3558476;39;113848;-73
2021/07/24 07:46:05;;;;;;;;;16.33;16.33;;;;;;;;3562617;39;112100;-71
2021/07/24 07:48:33;;;;;;;;;17.00;16.67;;;;;;;;3558929;39;114978;-73
2021/07/24 07:51:00;;;;;;;;;18.00;17.00;;;;;;;;3559294;39;111992;-74
2021/07/24 07:53:26;;;;;;;;;17.33;16.33;;;;;;;;3559831;39;113499;-72
2021/07/24 07:55:54;;;;;;;;;16.00;14.00;;;;;;;;3558136;39;114427;-74
2021/07/24 07:58:23;;;;;;;;;15.33;15.33;;;;;;;;3560064;39;111884;-73
2021/07/24 08:00:49;;;;;;;;;15.33;15.00;;;;;;;;3558730;39;113349;-74
2021/07/24 08:03:16;;;;;;;;;15.67;14.67;;;;;;;;3559906;39;113800;-73
2021/07/24 08:05:44;;;;;;;;;14.67;14.33;;;;;;;;3560437;39;112090;-73
2021/07/24 08:08:11;;;;;;;;;13.33;13.00;;;;;;;;3560164;39;113186;-74
2021/07/24 08:10:37;;;;;;;;;18.67;17.33;;;;;;;;3559895;39;112388;-74
2021/07/24 08:13:12;;;;;;;;;13.33;12.00;;;;;;;;3555584;39;112434;-75
2021/07/24 08:15:38;;;;;;;;;16.75;15.50;;;;;;;;3559549;39;113916;-75
2021/07/24 08:18:05;;;;;;;;;17.00;15.00;;;;;;;;3558671;39;112455;-75
2021/07/24 08:20:32;;;;;;;;;13.50;13.50;;;;;;;;3554756;39;112915;-76
2021/07/24 08:22:58;;;;;;;;;14.75;14.75;;;;;;;;3558638;39;113973;-74
2021/07/24 08:25:25;;;;;;;;;14.75;14.50;;;;;;;;3556191;39;111970;-73
2021/07/24 08:27:53;;;;;;;;;15.25;14.50;;;;;;;;3559574;39;113683;-74
2021/07/24 08:30:21;;;;;;;;;17.50;16.75;;;;;;;;3560484;39;114348;-73
2021/07/24 08:32:48;;;;;;;;;13.00;12.50;;;;;;;;3558318;39;113825;-74
2021/07/24 08:35:15;;;;;;;;;15.75;13.50;;;;;;;;3559061;39;113877;-72
2021/07/24 08:37:42;;;;;;;;;17.00;17.00;;;;;;;;3559815;39;111869;-72
2021/07/24 08:40:09;;;;;;;;;14.50;14.50;;;;;;;;3557577;39;113485;-71
2021/07/24 08:42:37;;;;;;;;;14.50;14.00;;;;;;;;3558302;39;114115;-71
2021/07/24 08:45:04;;;;;;;;;14.50;12.00;;;;;;;;3558248;39;112097;-72
2021/07/24 08:47:32;;;;;;;;;11.50;11.00;;;;;;;;3557478;39;113631;-72
2021/07/24 08:49:59;;;;;;;;;13.25;13.25;;;;;;;;3558107;39;114362;-71
2021/07/24 08:52:27;;;;;;;;;15.25;14.00;;;;;;;;3558572;39;112010;-72
2021/07/24 08:54:55;;;;;;;;;12.75;11.75;;;;;;;;3556821;39;113748;-72
2021/07/24 08:57:24;;;;;;;;;13.00;12.00;;;;;;;;3557822;39;111826;-72
2021/07/24 08:59:51;;;;;;;;;15.25;14.75;;;;;;;;3555464;39;112299;-72
2021/07/24 09:02:21;;;;;;;;;13.25;13.25;;;;;;;;3557184;39;113914;-72
2021/07/24 09:04:48;;;;;;;;;13.25;13.00;;;;;;;;3559174;39;111839;-74
2021/07/24 09:07:15;;;;;;;;;14.75;12.25;;;;;;;;3556916;39;113184;-74
2021/07/24 09:09:44;;;;;;;;;14.00;13.50;;;;;;;;3555272;39;113964;-73
2021/07/24 09:12:11;;;;;;;;;13.75;12.00;;;;;;;;3561907;39;111903;-72
2021/07/24 09:14:38;;;;;;;;;11.25;11.25;;;;;;;;3557408;39;113844;-74
2021/07/24 09:17:04;;;;;;;;;15.00;15.00;;;;;;;;3557490;39;113280;-71
2021/07/24 09:19:31;;;;;;;;;12.25;12.25;;;;;;;;3553458;39;112452;-71
2021/07/24 09:21:59;;;;;;;;;13.75;13.00;;;;;;;;3557495;39;114003;-70
2021/07/24 09:24:26;;;;;;;;;15.25;13.50;;;;;;;;3558128;39;112320;-72
2021/07/24 09:26:53;;;;;;;;;12.75;12.75;;;;;;;;3558514;39;113230;-74
2021/07/24 09:29:20;;;;;;;;;15.00;13.50;;;;;;;;3557409;39;113902;-73
2021/07/24 09:31:47;;;;;;;;;12.00;12.00;;;;;;;;3559088;39;112027;-73
2021/07/24 09:34:15;;;;;;;;;11.00;11.00;;;;;;;;3559648;39;113249;-70
2021/07/24 09:36:42;;;;;;;;;11.75;11.75;;;;;;;;3559446;39;112417;-73
2021/07/24 09:39:11;;;;;;;;;12.00;12.00;;;;;;;;3557706;39;113893;-73
2021/07/24 09:41:38;;;;;;;;;15.00;14.00;;;;;;;;3558705;39;114177;-73
2021/07/24 09:44:04;;;;;;;;;11.75;11.75;;;;;;;;3557844;39;113405;-73
2021/07/24 09:46:31;;;;;;;;;14.25;12.50;;;;;;;;3558259;39;113947;-73
2021/07/24 09:49:09;;;;;;;;;13.00;12.75;;;;;;;;3558283;39;113847;-73
2021/07/24 09:51:37;;;;;;;;;11.75;11.75;;;;;;;;3553636;39;113088;-71
2021/07/24 09:54:04;;;;;;;;;14.25;12.25;;;;;;;;3557417;39;113333;-72
2021/07/24 09:56:42;;;;;;;;;13.25;13.25;;;;;;;;3562632;39;114399;-72
2021/07/24 09:59:16;;;;;;;;;13.00;13.00;;;;;;;;3560301;39;113446;-73
2021/07/24 10:01:43;;;;;;;;;11.75;11.00;;;;;;;;3556566;39;113849;-72
2021/07/24 10:04:10;;;;;;;;;15.50;13.50;;;;;;;;3561147;39;111946;-72
2021/07/24 10:06:38;;;;;;;;;14.00;13.25;;;;;;;;3561378;39;113931;-72
2021/07/24 10:09:05;;;;;;;;;13.00;11.25;;;;;;;;3560727;39;114397;-73
2021/07/24 10:11:32;;;;;;;;;15.50;12.50;;;;;;;;3561515;39;112414;-73
2021/07/24 10:14:00;;;;;;;;;14.50;13.00;;;;;;;;3561855;39;113318;-73
2021/07/24 10:16:27;;;;;;;;;13.25;12.25;;;;;;;;3557726;39;114806;-73
2021/07/24 10:18:54;;;;;;;;;12.75;12.75;;;;;;;;3564101;39;112072;-75
2021/07/24 10:21:20;;;;;;;;;16.00;13.00;;;;;;;;3560941;39;113919;-73
2021/07/24 10:23:47;;;;;;;;;17.00;14.75;;;;;;;;3561700;39;112299;-72
2021/07/24 10:26:14;;;;;;;;;12.50;12.50;;;;;;;;3561436;39;113214;-73
2021/07/24 10:28:46;;;;;;;;;13.75;13.00;;;;;;;;3559382;39;114363;-73
2021/07/24 10:31:16;;;;;;;;;14.33;13.00;;;;;;;;3561218;39;111869;-73
2021/07/24 10:33:43;;;;;;;;;11.33;11.00;;;;;;;;3560137;39;113327;-76
2021/07/24 10:36:11;;;;;;;;;14.00;14.00;;;;;;;;3559550;39;114574;-72
2021/07/24 10:38:38;;;;;;;;;11.67;11.67;;;;;;;;3561285;39;112582;-75
2021/07/24 10:41:23;;;;;;;;;12.00;11.67;;;;;;;;3563524;39;113752;-70
2021/07/24 10:44:00;;;;;;;;;12.00;12.00;;;;;;;;3556412;39;112422;-72
2021/07/24 10:46:45;;;;;;;;;12.33;12.33;;;;;;;;3557747;39;113136;-73
2021/07/24 10:49:39;;;;;;;;;14.00;12.67;;;;;;;;3559173;39;113986;-72
2021/07/24 10:52:06;;;;;;;;;12.00;12.00;;;;;;;;3560457;39;112928;-74
2021/07/24 10:54:34;;;;;;;;;12.00;11.00;;;;;;;;3560701;39;114765;-72
2021/07/24 10:57:02;;;;;;;;;14.33;13.00;;;;;;;;3560978;39;113844;-72
2021/07/24 10:59:29;;;;;;;;;14.00;13.00;;;;;;;;3560910;39;112044;-73
2021/07/24 11:01:57;;;;;;;;;14.33;13.00;;;;;;;;3559349;39;113244;-72
2021/07/24 11:04:41;;;;;;;;;11.67;11.33;;;;;;;;3557995;39;112043;-72
2021/07/24 11:07:26;;;;;;;;;16.33;15.33;;;;;;;;3552694;39;113236;-72
2021/07/24 11:10:04;;;;;;;;;14.67;14.67;;;;;;;;3552708;39;113874;-72
2021/07/24 11:12:34;;;;;;;;;13.00;12.67;;;;;;;;3554938;39;112132;-72
2021/07/24 11:15:00;;;;;;;;;14.00;14.00;;;;;;;;3554392;39;113250;-73
2021/07/24 11:17:28;;;;;;;;;17.67;17.33;;;;;;;;3553825;39;113764;-73
2021/07/24 11:20:12;;;;;;;;;12.00;12.00;;;;;;;;3554047;39;112564;-76
2021/07/24 11:22:59;;;;;;;;;16.33;14.33;;;;;;;;3554967;39;113340;-74
2021/07/24 11:25:31;;;;;;;;;13.00;13.00;;;;;;;;3554776;39;113876;-74
2021/07/24 11:27:57;;;;;;;;;12.33;12.33;;;;;;;;3553219;39;113790;-76
2021/07/24 11:30:26;;;;;;;;;15.00;13.00;;;;;;;;3554295;39;114114;-76
2021/07/24 11:32:55;;;;;;;;;13.33;13.00;;;;;;;;3553666;39;112395;-76
2021/07/24 11:35:23;;;;;;;;;15.67;15.67;;;;;;;;3558541;39;113304;-74
2021/07/24 11:37:52;;;;;;;;;16.00;15.00;;;;;;;;3555511;39;113814;-75
2021/07/24 11:40:19;;;;;;;;;13.67;13.67;;;;;;;;3556351;39;111923;-76
2021/07/24 11:42:56;;;;;;;;;12.00;12.00;;;;;;;;3555641;39;113409;-75
2021/07/24 11:45:23;;;;;;;;;15.33;14.00;;;;;;;;3551737;39;113021;-75
2021/07/24 11:47:49;;;;;;;;;13.00;12.00;;;;;;;;3560330;39;111828;-75
2021/07/24 11:50:16;;;;;;;;;10.67;10.67;;;;;;;;3557975;39;114340;-79
2021/07/24 11:52:45;;;;;;;;;13.67;13.00;;;;;;;;3558459;39;111783;-75
2021/07/24 11:55:14;;;;;;;;;15.00;13.00;;;;;;;;3554044;39;112371;-78
2021/07/24 11:57:41;;;;;;;;;12.00;12.00;;;;;;;;3554358;39;115725;-74
2021/07/24 12:00:09;;;;;;;;;11.33;11.33;;;;;;;;3559779;39;112036;-74
2021/07/24 12:02:35;;;;;;;;;14.33;12.67;;;;;;;;3558629;39;113375;-75
2021/07/24 12:05:02;;;;;;;;;10.33;9.33;;;;;;;;3559077;39;113863;-76
2021/07/24 12:07:28;;;;;;;;;11.00;10.00;;;;;;;;3559129;39;111866;-74
2021/07/24 12:09:55;;;;;;;;;10.00;10.00;;;;;;;;3561198;39;113374;-74
2021/07/24 12:12:25;;;;;;;;;12.00;10.00;;;;;;;;3559738;39;112000;-74
